Flight Track Log - Related Links

Times and Time Zones

All times are in EDT time to prevent confusion due to time zone crossing. See the N776JS flight status page for this flight to view local times or setup timezone preferences in your user account.

Time Position Orientation Groundspeed Altitude Reporting Facility
EDT Latitude Longitude Course Direction KTS MPH feet Rate Location/Type
Tue 07:21:44 PM 40.8253 -96.7544 206° Southwest 151 174 2,100  Level Minneapolis Center
Tue 07:22:20 PM 40.8019 -96.7694 263° West 184 212 3,800 3,064 Climbing Minneapolis Center
Tue 07:23:18 PM 40.7953 -96.8431 257° West 211 243 6,900 2,975 Climbing Minneapolis Center
Tue 07:24:19 PM 40.7800 -96.9325 258° West 229 264 9,700 2,926 Climbing Minneapolis Center
Tue 07:25:19 PM 40.7644 -97.0331 258° West 256 295 12,800 3,126 Climbing Minneapolis Center
Tue 07:26:18 PM 40.7486 -97.1333 255° West 280 322 15,900 3,100 Climbing Minneapolis Center
Tue 07:27:19 PM 40.7261 -97.2414 256° West 293 337 19,000 2,926 Climbing Minneapolis Center
Tue 07:28:19 PM 40.7056 -97.3494 259° West 305 351 21,800 2,571 Climbing Minneapolis Center
Tue 07:29:18 PM 40.6914 -97.4497 254° West 305 351 24,100 2,118 Climbing Minneapolis Center
Tue 07:30:18 PM 40.6667 -97.5600 256° West 316 364 26,000 2,250 Climbing Minneapolis Center
Tue 07:31:18 PM 40.6431 -97.6814 256° West 327 376 28,600 2,083 Climbing Minneapolis Center
Tue 07:32:19 PM 40.6219 -97.7947 254° West 327 376 30,200 1,300 Climbing Minneapolis Center
Tue 07:33:18 PM 40.5942 -97.9183 255° West 337 388 31,200 1,150 Climbing Minneapolis Center
Tue 07:34:19 PM 40.5681 -98.0447 259° West 358 412 32,500 1,537 Climbing Minneapolis Center
Tue 07:35:19 PM 40.5478 -98.1797 254° West 371 427 34,300 1,600 Climbing Minneapolis Center
Tue 07:36:19 PM 40.5186 -98.3167 252° West 371 427 35,700 1,123 Climbing Minneapolis Center
Tue 07:37:54 PM 40.4681 -98.5214 258° West 365 420 37,200 1,084 Climbing Denver Center
Tue 07:38:54 PM 40.4461 -98.6553 257° West 375 432 38,500 1,250 Climbing Denver Center
Tue 07:39:54 PM 40.4233 -98.7836 254° West 375 432 39,700 750 Climbing Denver Center
Tue 07:40:54 PM 40.3944 -98.9150 253° West 369 425 40,000 150 Climbing Denver Center
Tue 07:41:54 PM 40.3653 -99.0439 256° West 369 425 40,000  Level Denver Center
Tue 07:42:54 PM 40.3386 -99.1806 254° West 380 437 40,000  Level Denver Center
Tue 07:43:54 PM 40.3094 -99.3144 254° West 385 443 40,000  Level Denver Center
Tue 07:44:54 PM 40.2803 -99.4483 255° West 385 443 40,000  Level Denver Center
Tue 07:45:54 PM 40.2511 -99.5875 255° West 392 451 40,000  Level Denver Center
Tue 07:46:54 PM 40.2236 -99.7211 255° West 392 451 40,000  Level Denver Center
Tue 07:47:54 PM 40.1958 -99.8572 255° West 392 451 40,000  Level Denver Center
Tue 07:48:54 PM 40.1717 -99.9792 254° West 387 445 40,000  Level Denver Center
Tue 07:49:54 PM 40.1383 -100.1292 254° West 387 445 40,000  Level Denver Center
Tue 07:50:54 PM 40.1081 -100.2625 253° West 387 445 40,000  Level Denver Center
Tue 07:51:54 PM 40.0775 -100.3931 256° West 387 445 40,000  Level Denver Center
Tue 07:52:54 PM 40.0544 -100.5144 252° West 387 445 40,000  Level Denver Center
Tue 07:53:54 PM 40.0217 -100.6475 254° West 387 445 40,000  Level Denver Center
Tue 07:54:54 PM 39.9894 -100.7942 254° West 387 445 40,000  Level Denver Center
Tue 07:55:54 PM 39.9603 -100.9239 254° West 387 445 40,000  Level Denver Center
Tue 07:56:54 PM 39.9328 -101.0453 253° West 392 451 40,000  Level Denver Center
Tue 07:57:54 PM 39.9014 -101.1753 253° West 384 442 40,000  Level Denver Center
Tue 07:58:54 PM 39.8661 -101.3214 253° West 390 449 40,000  Level Denver Center
Tue 07:59:54 PM 39.8347 -101.4564 254° West 390 449 40,000  Level Denver Center
Tue 08:00:54 PM 39.8086 -101.5772 252° West 390 449 40,000  Level Denver Center
Tue 08:01:54 PM 39.7764 -101.7067 253° West 390 449 40,000  Level Denver Center
Tue 08:02:54 PM 39.7428 -101.8522 252° West 390 449 40,000  Level Denver Center
Tue 08:03:54 PM 39.7106 -101.9839 253° West 390 449 40,000  Level Denver Center
Tue 08:04:54 PM 39.6836 -102.1017 253° West 390 449 40,000  Level Denver Center
Tue 08:05:54 PM 39.6531 -102.2278 253° West 390 449 40,000  Level Denver Center
Tue 08:06:54 PM 39.6186 -102.3728 255° West 390 449 40,000  Level Denver Center
Tue 08:07:54 PM 39.5900 -102.5067 251° West 390 449 40,000  Level Denver Center
Tue 08:08:54 PM 39.5567 -102.6325 252° West 383 441 40,000  Level Denver Center
Tue 08:09:54 PM 39.5233 -102.7636 254° West 378 435 40,000  Level Denver Center
Tue 08:10:54 PM 39.4942 -102.8917 252° West 378 435 40,000  Level Denver Center
Tue 08:11:54 PM 39.4625 -103.0197 251° West 378 435 40,000  Level Denver Center
Tue 08:12:54 PM 39.4289 -103.1450 252° West 378 435 40,000  Level Denver Center
Tue 08:13:54 PM 39.3969 -103.2756 252° West 378 435 40,000  Level Denver Center
Tue 08:14:54 PM 39.3689 -103.3897 252° West 378 435 40,000  Level Denver Center
Tue 08:15:54 PM 39.3367 -103.5172 251° West 372 428 40,000  Level Denver Center
Tue 08:16:54 PM 39.3025 -103.6422 251° West 372 428 40,000  Level Denver Center
Tue 08:17:54 PM 39.2681 -103.7725 253° West 377 434 40,000  Level Denver Center
Tue 08:18:54 PM 39.2375 -103.9022 252° West 382 440 40,000  Level Denver Center
Tue 08:19:54 PM 39.2031 -104.0428 250° West 382 440 40,000  Level Denver Center
Tue 08:20:54 PM 39.1661 -104.1700 250° West 382 440 40,000  Level Denver Center
Tue 08:21:54 PM 39.1311 -104.2944 252° West 382 440 40,000  Level Denver Center
Tue 08:22:54 PM 39.1000 -104.4211 251° West 377 434 40,000  Level Denver Center
Tue 08:23:54 PM 39.0667 -104.5478 250° West 377 434 40,000  Level Denver Center
Tue 08:24:54 PM 39.0314 -104.6744 252° West 377 434 40,000  Level Denver Center
Tue 08:25:54 PM 38.9997 -104.7981 252° West 370 426 40,000  Level Denver Center
Tue 08:26:54 PM 38.9722 -104.9083 249° West 370 426 40,000  Level Denver Center
Tue 08:27:54 PM 38.9361 -105.0292 250° West 370 426 40,000  Level Denver Center
Tue 08:28:54 PM 38.9003 -105.1525 253° West 370 426 40,000  Level Denver Center
Tue 08:29:54 PM 38.8703 -105.2783 252° West 370 426 40,000  Level Denver Center
Tue 08:30:54 PM 38.8403 -105.3989 250° West 370 426 40,000  Level Denver Center
Tue 08:31:54 PM 38.8017 -105.5328 248° West 370 426 40,000 -50 Level Denver Center
Tue 08:32:54 PM 38.7631 -105.6531 250° West 370 426 39,900 50 Descending Denver Center
Tue 08:33:54 PM 38.7264 -105.7786 254° West 375 432 40,100 50 Climbing Denver Center
Tue 08:34:54 PM 38.6978 -105.9064 250° West 370 426 40,000 -50 Descending Denver Center
Tue 08:35:54 PM 38.6628 -106.0292 248° West 370 426 40,000  Level Denver Center
Tue 08:36:54 PM 38.6236 -106.1517 252° West 370 426 40,000 50 Level Denver Center
Tue 08:37:54 PM 38.5906 -106.2844 249° West 379 436 40,100  Climbing Denver Center
Tue 08:38:54 PM 38.5553 -106.3989 254° West 390 449 40,000 -50 Descending Denver Center
Tue 08:39:54 PM 38.5239 -106.5394 256° West 385 443 40,000  Level Denver Center
Tue 08:40:54 PM 38.4989 -106.6642 251° West 375 432 40,000 -50 Level Denver Center
Tue 08:41:54 PM 38.4653 -106.7858 250° West 375 432 39,900  Descending Denver Center
Tue 08:42:54 PM 38.4336 -106.8944 251° West 370 426 40,000 50 Climbing Denver Center
Tue 08:43:54 PM 38.3956 -107.0347 254° West 377 434 40,000  Level Denver Center
Tue 08:44:54 PM 38.3678 -107.1589 253° West 377 434 40,000  Level Denver Center
Tue 08:45:54 PM 38.3378 -107.2831 251° West 377 434 40,000  Level Denver Center
Tue 08:46:54 PM 38.3056 -107.3989 250° West 384 442 40,000 50 Level Denver Center
Tue 08:47:54 PM 38.2711 -107.5200 252° West 384 442 40,100  Climbing Denver Center
Tue 08:48:54 PM 38.2342 -107.6622 254° West 384 442 40,000 -50 Descending Denver Center
Tue 08:49:54 PM 38.2058 -107.7858 252° West 384 442 40,000  Level Denver Center
Tue 08:50:54 PM 38.1775 -107.8936 249° West 377 434 40,000  Level Denver Center
Tue 08:51:54 PM 38.1403 -108.0169 251° West 372 428 40,000  Level Denver Center
Tue 08:52:54 PM 38.1031 -108.1533 252° West 372 428 40,000  Level Denver Center
Tue 08:53:54 PM 38.0719 -108.2767 253° West 367 422 40,000  Level Denver Center
Tue 08:54:54 PM 38.0428 -108.3997 250° West 367 422 40,000  Level Denver Center
Tue 08:55:54 PM 38.0117 -108.5069 251° West 367 422 40,000  Level Denver Center
Tue 08:56:54 PM 37.9781 -108.6322 252° West 372 428 40,000  Level Denver Center
Tue 08:57:54 PM 37.9422 -108.7681 252° West 372 428 40,000  Level Denver Center
Tue 08:58:54 PM 37.9103 -108.8908 249° West 378 435 40,000  Level Denver Center
Tue 08:59:54 PM 37.8767 -109.0025 250° West 384 442 40,000  Level Denver Center
Tue 09:00:54 PM 37.8381 -109.1381 251° West 384 442 40,000  Level Denver Center
Tue 09:01:54 PM 37.8039 -109.2600 252° West 384 442 40,000  Level Denver Center
Tue 09:02:54 PM 37.7717 -109.3875 250° West 384 442 40,000  Level Denver Center
Tue 09:03:54 PM 37.7394 -109.4992 249° West 379 436 40,000  Level Denver Center
Tue 09:04:54 PM 37.6981 -109.6364 251° West 384 442 40,000  Level Denver Center
Tue 09:05:54 PM 37.6633 -109.7608 250° West 384 442 40,000  Level Denver Center
Tue 09:06:54 PM 37.6286 -109.8822 251° West 384 442 40,000 -50 Level Denver Center
Tue 09:07:54 PM 37.5978 -109.9961 251° West 379 436 39,900  Descending Denver Center
Tue 09:08:54 PM 37.5603 -110.1331 249° West 379 436 40,000 50 Climbing Denver Center
Tue 09:09:54 PM 37.5250 -110.2517 249° West 379 436 40,000  Level Denver Center
Tue 09:10:54 PM 37.4900 -110.3650 245° Southwest 385 443 40,000  Level Denver Center
Tue 09:11:54 PM 37.4439 -110.4881 250° West 390 449 40,000  Level Denver Center
Tue 09:12:54 PM 37.4083 -110.6114 251° West 390 449 40,000  Level Denver Center
Tue 09:13:54 PM 37.3744 -110.7375 248° West 385 443 40,000  Level Denver Center
Tue 09:14:54 PM 37.3294 -110.8758 251° West 385 443 40,000  Level Denver Center
Tue 09:15:54 PM 37.2956 -110.9989 250° West 385 443 40,000  Level Denver Center
Tue 09:16:54 PM 37.2592 -111.1217 250° West 385 443 40,000  Level Denver Center
Tue 09:18:30 PM 37.2003 -111.3286 249° West 385 443 40,000  Level Los Angeles Center
Tue 09:19:30 PM 37.1614 -111.4533 250° West 391 450 40,000  Level Los Angeles Center
Tue 09:20:30 PM 37.1319 -111.5567 248° West 396 456 40,000  Level Los Angeles Center
Tue 09:21:30 PM 37.0889 -111.6919 249° West 396 456 40,000  Level Los Angeles Center
Tue 09:22:30 PM 37.0497 -111.8189 250° West 396 456 40,000  Level Los Angeles Center
Tue 09:23:30 PM 37.0125 -111.9458 249° West 396 456 40,000  Level Los Angeles Center
Tue 09:24:30 PM 36.9731 -112.0753 248° West 396 456 40,000 -100 Level Los Angeles Center
Tue 09:25:30 PM 36.9311 -112.2019 249° West 396 456 39,800 -600 Descending Los Angeles Center
Tue 09:26:30 PM 36.8878 -112.3444 249° West 396 456 38,800 -900 Descending Los Angeles Center
Tue 09:27:30 PM 36.8458 -112.4786 249° West 401 461 38,000 -850 Descending Los Angeles Center
Tue 09:28:30 PM 36.8061 -112.6103 249° West 407 468 37,100 -1,000 Descending Los Angeles Center
Tue 09:29:30 PM 36.7658 -112.7389 251° West 412 474 36,000 -950 Descending Los Angeles Center
Tue 09:30:30 PM 36.7317 -112.8622 252° West 412 474 35,200 -1,000 Descending Los Angeles Center
Tue 09:31:30 PM 36.6956 -113.0008 252° West 417 480 34,000 -1,100 Descending Los Angeles Center
Tue 09:32:30 PM 36.6594 -113.1369 250° West 417 480 33,000 -500 Descending Los Angeles Center
Tue 09:33:30 PM 36.6189 -113.2756 252° West 417 480 33,000  Level Los Angeles Center
Tue 09:34:30 PM 36.5844 -113.4086 250° West 417 480 33,000 -300 Level Los Angeles Center
Tue 09:35:30 PM 36.5397 -113.5575 250° West 417 480 32,400 -800 Descending Los Angeles Center
Tue 09:36:30 PM 36.5047 -113.6800 252° West 422 486 31,400 -1,050 Descending Los Angeles Center
Tue 09:37:30 PM 36.4678 -113.8206 250° West 422 486 30,300 -2,450 Descending Los Angeles Center
Tue 09:38:30 PM 36.4286 -113.9561 250° West 422 486 26,500 -3,900 Descending Los Angeles Center
Tue 09:39:30 PM 36.3892 -114.0911 249° West 427 491 22,500 -5,061 Descending Los Angeles Center
Tue 09:40:25 PM 36.3475 -114.2264 247° West 398 458 16,800 -4,500 Descending Los Angeles Center
Tue 09:41:30 PM 36.3114 -114.3328 226° Southwest 395 455 13,500 -1,824 Descending Los Angeles Center
Tue 09:42:30 PM 36.2522 -114.4089 220° Southwest 340 391 13,000 -250 Descending Los Angeles Center
Tue 09:43:30 PM 36.1925 -114.4719 210° Southwest 306 352 13,000 -50 Level Los Angeles Center
Tue 09:44:30 PM 36.1264 -114.5194 212° Southwest 289 333 12,900 -550 Descending Los Angeles Center
Tue 09:45:30 PM 36.0583 -114.5722 211° Southwest 289 333 11,900 -650 Descending Los Angeles Center
Tue 09:46:30 PM 35.9942 -114.6197 218° Southwest 289 333 11,600 -750 Descending Los Angeles Center
Tue 09:47:30 PM 35.9406 -114.6719 233° Southwest 272 313 10,400 -1,200 Descending Los Angeles Center
Tue 09:48:30 PM 35.8975 -114.7419 233° Southwest 244 281 9,200 -1,250 Descending Los Angeles Center
Tue 09:49:30 PM 35.8606 -114.8017 236° Southwest 234 269 7,900 -650 Descending Los Angeles Center
Tue 09:50:30 PM 35.8258 -114.8661 249° West 229 264 7,900 -450 Level Los Angeles Center
Tue 09:51:30 PM 35.8036 -114.9381 275° West 229 264 7,000 -450 Descending Los Angeles Center
Tue 09:52:30 PM 35.8083 -115.0122 301° West 217 250 7,000 -700 Level Los Angeles Center
Tue 09:53:30 PM 35.8403 -115.0786 348° North 217 250 5,600 -1,273 Descending Los Angeles Center
Tue 09:54:42 PM 35.9344 -115.1031 355° North 274 315 4,200 -1,038 Descending Los Angeles Center
Tue 09:55:43 PM 35.9950 -115.1100 271° West 189 217 3,300 -778 Descending Los Angeles Center
Tue 09:56:30 PM 35.9953 -115.1306 331° Northwest 146 168 2,800 5,439 Descending Los Angeles Center
Tue 09:57:30 PM 36.0350 -115.1583 332° Northwest 146 168 13,000 5,100 Climbing Los Angeles Center
Tue 09:58:30 PM 36.0728 -115.1833 331° Northwest 146 168 13,000  Level Los Angeles Center
Tue 09:59:30 PM 36.1022 -115.2036 331° Northwest 146 168 13,000  Level Los Angeles Center

Login

Don't have an account? Register now (free) for customized features, flight alerts, and more!